Airfield :







YOU CAN JOIN US ON...

 
LOGIN :

Register | Disclaimer

   EN    FR    IT 

 









Legend :    VFR   Marginal VFR   IFR   Intensive IFR   Very Intensive IFR
Visi :
Ceiling :
>= 8 km
>= 3000ft
5 to 8 km
1000 to 3000 ft
1500m to 5 km
500 to 1000 ft
800 to 1500m
200 to 500 ft
< 800m
< 200 ft
Symbols :   Thunderstorms  Fog  Heavy snow  Heavy precipitations  Wind > 20 kt






- Airport Elevation : 550 ft
- IATA code : YOY


CYOY - C J.H.L.(Joe) Lecomte) Heliport

CURRENT METAR :
  • 301314Z AUTO 31009KT 270V340 9SM BKN024 13/10 A2971

EXPIRED METARs :
  • 301243Z AUTO 33007KT 250V010 9SM -RA OVC028 OVC058 13/10 A2968
  • 301225Z AUTO 32008KT 9SM FEW018 OVC026 13/10 A2966
  • 301200Z AUTO 33006KT 250V010 9SM -RA FEW014 OVC026 13/10 A2966 RMK SLP045
  • 301129Z AUTO 31007KT 260V010 9SM -RA OVC026 13/10 A2964
  • 301100Z AUTO 34008KT 310V050 9SM OVC025 14/10 A2961 RMK PCPN 0.5MM PAST HR SLP027

Expired Forecast.
CZUL FIR / North America



MET'MAP, your aeronautical weather chart ! - Copyright ORBIFLY December 2007 - Disclaimer

ORBIFLY MET'MAP TEAM :

Programming & Development : Alexandra Zaïnal
Concept & original design : Baudouin d'Aumeries
Assistance for programming : Marc-Olivier Méhu
Technical & hardware support : Manuel Goepfert

Contact : metmap@orbifly.com




SOURCES & CREDITS :

   NOAA